sensor_id;sensor_type;location;lat;lon;timestamp;temperature;humidity
25512;DHT22;13414;44.534;18.700;2023-12-14T00:01:29;10.10;99.90
25512;DHT22;13414;44.534;18.700;2023-12-14T00:03:55;10.20;99.90
25512;DHT22;13414;44.534;18.700;2023-12-14T00:06:24;10.30;99.90
25512;DHT22;13414;44.534;18.700;2023-12-14T00:08:52;10.40;99.90
25512;DHT22;13414;44.534;18.700;2023-12-14T00:11:19;10.40;99.90
25512;DHT22;13414;44.534;18.700;2023-12-14T00:13:47;10.30;99.90
25512;DHT22;13414;44.534;18.700;2023-12-14T00:16:15;10.30;99.90
25512;DHT22;13414;44.534;18.700;2023-12-14T00:18:42;10.40;99.90
25512;DHT22;13414;44.534;18.700;2023-12-14T00:21:10;10.50;99.90
25512;DHT22;13414;44.534;18.700;2023-12-14T00:23:41;10.50;99.90
25512;DHT22;13414;44.534;18.700;2023-12-14T00:26:09;10.40;99.90
25512;DHT22;13414;44.534;18.700;2023-12-14T00:28:36;10.30;99.90
25512;DHT22;13414;44.534;18.700;2023-12-14T00:31:04;10.30;99.90
25512;DHT22;13414;44.534;18.700;2023-12-14T00:33:33;10.20;99.90
25512;DHT22;13414;44.534;18.700;2023-12-14T00:36:03;10.20;99.90
25512;DHT22;13414;44.534;18.700;2023-12-14T00:38:30;10.20;99.90
25512;DHT22;13414;44.534;18.700;2023-12-14T00:40:59;10.20;99.90
25512;DHT22;13414;44.534;18.700;2023-12-14T00:43:27;10.20;99.90
25512;DHT22;13414;44.534;18.700;2023-12-14T00:45:54;10.20;99.90
25512;DHT22;13414;44.534;18.700;2023-12-14T00:48:22;10.00;99.90
25512;DHT22;13414;44.534;18.700;2023-12-14T00:50:50;9.90;99.90
25512;DHT22;13414;44.534;18.700;2023-12-14T00:53:17;9.90;99.90
25512;DHT22;13414;44.534;18.700;2023-12-14T00:55:45;10.10;99.90
25512;DHT22;13414;44.534;18.700;2023-12-14T00:58:14;10.10;99.90
25512;DHT22;13414;44.534;18.700;2023-12-14T01:00:41;10.10;99.90
25512;DHT22;13414;44.534;18.700;2023-12-14T01:03:09;10.10;99.90
25512;DHT22;13414;44.534;18.700;2023-12-14T01:05:36;10.00;99.90
25512;DHT22;13414;44.534;18.700;2023-12-14T01:08:04;9.90;99.90
25512;DHT22;13414;44.534;18.700;2023-12-14T01:10:32;10.00;99.90
25512;DHT22;13414;44.534;18.700;2023-12-14T01:13:00;10.00;99.90
25512;DHT22;13414;44.534;18.700;2023-12-14T01:15:29;10.00;99.90
25512;DHT22;13414;44.534;18.700;2023-12-14T01:17:56;9.80;99.90
25512;DHT22;13414;44.534;18.700;2023-12-14T01:20:24;9.70;99.90
25512;DHT22;13414;44.534;18.700;2023-12-14T01:22:51;9.70;99.90
25512;DHT22;13414;44.534;18.700;2023-12-14T01:25:19;9.60;99.90
25512;DHT22;13414;44.534;18.700;2023-12-14T01:27:47;9.60;99.90
25512;DHT22;13414;44.534;18.700;2023-12-14T01:30:14;9.70;99.90
25512;DHT22;13414;44.534;18.700;2023-12-14T01:32:43;9.70;99.90
25512;DHT22;13414;44.534;18.700;2023-12-14T01:35:11;9.70;99.90
25512;DHT22;13414;44.534;18.700;2023-12-14T01:37:39;9.50;99.90
25512;DHT22;13414;44.534;18.700;2023-12-14T01:40:07;9.50;99.90
25512;DHT22;13414;44.534;18.700;2023-12-14T01:42:35;9.60;99.90
25512;DHT22;13414;44.534;18.700;2023-12-14T01:45:24;9.60;99.90
25512;DHT22;13414;44.534;18.700;2023-12-14T01:47:53;9.70;99.90
25512;DHT22;13414;44.534;18.700;2023-12-14T01:50:21;9.60;99.90
25512;DHT22;13414;44.534;18.700;2023-12-14T01:52:48;9.60;99.90
25512;DHT22;13414;44.534;18.700;2023-12-14T01:55:16;9.60;99.90
25512;DHT22;13414;44.534;18.700;2023-12-14T01:57:44;9.60;99.90
25512;DHT22;13414;44.534;18.700;2023-12-14T02:00:19;9.60;99.90
25512;DHT22;13414;44.534;18.700;2023-12-14T02:02:48;9.70;99.90
25512;DHT22;13414;44.534;18.700;2023-12-14T02:05:17;9.70;99.90
25512;DHT22;13414;44.534;18.700;2023-12-14T02:07:45;9.60;99.90
25512;DHT22;13414;44.534;18.700;2023-12-14T02:10:13;9.60;99.90
25512;DHT22;13414;44.534;18.700;2023-12-14T02:12:40;9.50;99.90
25512;DHT22;13414;44.534;18.700;2023-12-14T02:15:08;9.40;99.90
25512;DHT22;13414;44.534;18.700;2023-12-14T02:17:36;9.40;99.90
25512;DHT22;13414;44.534;18.700;2023-12-14T02:20:04;9.50;99.90
25512;DHT22;13414;44.534;18.700;2023-12-14T02:22:48;9.50;99.90
25512;DHT22;13414;44.534;18.700;2023-12-14T02:25:16;9.70;99.90
25512;DHT22;13414;44.534;18.700;2023-12-14T02:27:44;9.70;99.90
25512;DHT22;13414;44.534;18.700;2023-12-14T02:30:13;9.80;99.90
25512;DHT22;13414;44.534;18.700;2023-12-14T02:32:41;9.70;99.90
25512;DHT22;13414;44.534;18.700;2023-12-14T02:35:08;9.70;99.90
25512;DHT22;13414;44.534;18.700;2023-12-14T02:37:37;9.70;99.90
25512;DHT22;13414;44.534;18.700;2023-12-14T02:40:07;9.60;99.90
25512;DHT22;13414;44.534;18.700;2023-12-14T02:42:35;9.50;99.90
25512;DHT22;13414;44.534;18.700;2023-12-14T02:45:03;9.30;99.90
25512;DHT22;13414;44.534;18.700;2023-12-14T02:47:30;9.20;99.90
25512;DHT22;13414;44.534;18.700;2023-12-14T02:49:58;9.30;99.90
25512;DHT22;13414;44.534;18.700;2023-12-14T02:52:26;9.30;99.90
25512;DHT22;13414;44.534;18.700;2023-12-14T02:54:55;9.50;99.90
25512;DHT22;13414;44.534;18.700;2023-12-14T02:57:22;9.50;99.90
25512;DHT22;13414;44.534;18.700;2023-12-14T02:59:50;9.50;99.90
25512;DHT22;13414;44.534;18.700;2023-12-14T03:02:17;9.50;99.90
25512;DHT22;13414;44.534;18.700;2023-12-14T03:04:45;9.60;99.90
25512;DHT22;13414;44.534;18.700;2023-12-14T03:07:12;9.60;99.90
25512;DHT22;13414;44.534;18.700;2023-12-14T03:09:40;9.70;99.90
25512;DHT22;13414;44.534;18.700;2023-12-14T03:12:11;9.80;99.90
25512;DHT22;13414;44.534;18.700;2023-12-14T03:14:39;9.80;99.90
25512;DHT22;13414;44.534;18.700;2023-12-14T03:17:07;9.80;99.90
25512;DHT22;13414;44.534;18.700;2023-12-14T03:19:39;9.50;99.90
25512;DHT22;13414;44.534;18.700;2023-12-14T03:22:07;9.40;99.90
25512;DHT22;13414;44.534;18.700;2023-12-14T03:24:35;9.30;99.90
25512;DHT22;13414;44.534;18.700;2023-12-14T03:27:03;9.50;99.90
25512;DHT22;13414;44.534;18.700;2023-12-14T03:29:32;9.60;99.90
25512;DHT22;13414;44.534;18.700;2023-12-14T03:32:08;9.70;99.90
25512;DHT22;13414;44.534;18.700;2023-12-14T03:34:38;9.70;99.90
25512;DHT22;13414;44.534;18.700;2023-12-14T03:37:05;9.60;99.90
25512;DHT22;13414;44.534;18.700;2023-12-14T03:39:33;9.50;99.90
25512;DHT22;13414;44.534;18.700;2023-12-14T03:42:00;9.40;99.90
25512;DHT22;13414;44.534;18.700;2023-12-14T03:44:28;9.50;99.90
25512;DHT22;13414;44.534;18.700;2023-12-14T03:46:57;9.50;99.90
25512;DHT22;13414;44.534;18.700;2023-12-14T03:49:28;9.50;99.90
25512;DHT22;13414;44.534;18.700;2023-12-14T03:51:56;9.50;99.90
25512;DHT22;13414;44.534;18.700;2023-12-14T03:54:23;9.50;99.90
25512;DHT22;13414;44.534;18.700;2023-12-14T03:56:52;9.40;99.90
25512;DHT22;13414;44.534;18.700;2023-12-14T03:59:20;9.30;99.90
25512;DHT22;13414;44.534;18.700;2023-12-14T04:01:47;9.30;99.90
25512;DHT22;13414;44.534;18.700;2023-12-14T04:04:16;9.30;99.90
25512;DHT22;13414;44.534;18.700;2023-12-14T04:06:44;9.30;99.90
25512;DHT22;13414;44.534;18.700;2023-12-14T04:09:11;9.30;99.90
25512;DHT22;13414;44.534;18.700;2023-12-14T04:11:39;9.20;99.90
25512;DHT22;13414;44.534;18.700;2023-12-14T04:14:07;9.30;99.90
25512;DHT22;13414;44.534;18.700;2023-12-14T04:16:35;9.40;99.90
25512;DHT22;13414;44.534;18.700;2023-12-14T04:19:03;9.50;99.90
25512;DHT22;13414;44.534;18.700;2023-12-14T04:21:37;9.60;99.90
25512;DHT22;13414;44.534;18.700;2023-12-14T04:24:05;9.70;99.90
25512;DHT22;13414;44.534;18.700;2023-12-14T04:26:33;9.70;99.90
25512;DHT22;13414;44.534;18.700;2023-12-14T04:29:00;9.40;99.90
25512;DHT22;13414;44.534;18.700;2023-12-14T04:31:28;9.30;99.90
25512;DHT22;13414;44.534;18.700;2023-12-14T04:33:55;9.30;99.90
25512;DHT22;13414;44.534;18.700;2023-12-14T04:36:23;9.40;99.90
25512;DHT22;13414;44.534;18.700;2023-12-14T04:38:52;9.60;99.90
25512;DHT22;13414;44.534;18.700;2023-12-14T04:41:19;9.70;99.90
25512;DHT22;13414;44.534;18.700;2023-12-14T04:43:47;9.80;99.90
25512;DHT22;13414;44.534;18.700;2023-12-14T04:46:14;9.80;99.90
25512;DHT22;13414;44.534;18.700;2023-12-14T04:48:42;9.70;99.90
25512;DHT22;13414;44.534;18.700;2023-12-14T04:51:12;9.70;99.90
25512;DHT22;13414;44.534;18.700;2023-12-14T04:53:40;9.80;99.90
25512;DHT22;13414;44.534;18.700;2023-12-14T04:56:12;9.70;99.90
25512;DHT22;13414;44.534;18.700;2023-12-14T04:58:41;9.60;99.90
25512;DHT22;13414;44.534;18.700;2023-12-14T05:01:08;9.70;99.90
25512;DHT22;13414;44.534;18.700;2023-12-14T05:03:36;9.70;99.90
25512;DHT22;13414;44.534;18.700;2023-12-14T05:06:04;9.70;99.90
25512;DHT22;13414;44.534;18.700;2023-12-14T05:08:34;9.80;99.90
25512;DHT22;13414;44.534;18.700;2023-12-14T05:11:01;9.90;99.90
25512;DHT22;13414;44.534;18.700;2023-12-14T05:13:31;9.90;99.90
25512;DHT22;13414;44.534;18.700;2023-12-14T05:15:58;9.90;99.90
25512;DHT22;13414;44.534;18.700;2023-12-14T05:18:26;10.00;99.90
25512;DHT22;13414;44.534;18.700;2023-12-14T05:20:54;10.00;99.90
25512;DHT22;13414;44.534;18.700;2023-12-14T05:23:22;9.90;99.90
25512;DHT22;13414;44.534;18.700;2023-12-14T05:25:50;9.90;99.90
25512;DHT22;13414;44.534;18.700;2023-12-14T05:28:17;9.80;99.90
25512;DHT22;13414;44.534;18.700;2023-12-14T05:30:46;9.80;99.90
25512;DHT22;13414;44.534;18.700;2023-12-14T05:33:14;9.80;99.90
25512;DHT22;13414;44.534;18.700;2023-12-14T05:35:41;9.90;99.90
25512;DHT22;13414;44.534;18.700;2023-12-14T05:38:09;9.90;99.90
25512;DHT22;13414;44.534;18.700;2023-12-14T05:40:36;9.80;99.90
25512;DHT22;13414;44.534;18.700;2023-12-14T05:43:04;9.80;99.90
25512;DHT22;13414;44.534;18.700;2023-12-14T05:45:31;9.80;99.90
25512;DHT22;13414;44.534;18.700;2023-12-14T05:48:02;9.80;99.90
25512;DHT22;13414;44.534;18.700;2023-12-14T05:50:37;9.70;99.90
25512;DHT22;13414;44.534;18.700;2023-12-14T05:53:04;9.70;99.90
25512;DHT22;13414;44.534;18.700;2023-12-14T05:55:32;9.70;99.90
25512;DHT22;13414;44.534;18.700;2023-12-14T05:58:01;9.70;99.90
25512;DHT22;13414;44.534;18.700;2023-12-14T06:00:29;9.70;99.90
25512;DHT22;13414;44.534;18.700;2023-12-14T06:02:57;9.80;99.90
25512;DHT22;13414;44.534;18.700;2023-12-14T06:05:26;9.70;99.90
25512;DHT22;13414;44.534;18.700;2023-12-14T06:07:54;9.80;99.90
25512;DHT22;13414;44.534;18.700;2023-12-14T06:10:23;9.80;99.90
25512;DHT22;13414;44.534;18.700;2023-12-14T06:12:50;9.70;99.90
25512;DHT22;13414;44.534;18.700;2023-12-14T06:15:18;9.70;99.90
25512;DHT22;13414;44.534;18.700;2023-12-14T06:17:45;9.80;99.90
25512;DHT22;13414;44.534;18.700;2023-12-14T06:20:13;9.80;99.90
25512;DHT22;13414;44.534;18.700;2023-12-14T06:22:42;9.80;99.90
25512;DHT22;13414;44.534;18.700;2023-12-14T06:25:09;9.80;99.90
25512;DHT22;13414;44.534;18.700;2023-12-14T06:27:37;9.80;99.90
25512;DHT22;13414;44.534;18.700;2023-12-14T06:30:05;9.70;99.90
25512;DHT22;13414;44.534;18.700;2023-12-14T06:32:34;9.80;99.90
25512;DHT22;13414;44.534;18.700;2023-12-14T06:35:02;9.80;99.90
25512;DHT22;13414;44.534;18.700;2023-12-14T06:37:30;9.80;99.90
25512;DHT22;13414;44.534;18.700;2023-12-14T06:39:59;9.80;99.90
25512;DHT22;13414;44.534;18.700;2023-12-14T06:42:27;9.90;99.90
25512;DHT22;13414;44.534;18.700;2023-12-14T06:44:55;9.80;99.90
25512;DHT22;13414;44.534;18.700;2023-12-14T06:47:22;9.80;99.90
25512;DHT22;13414;44.534;18.700;2023-12-14T06:49:50;9.80;99.90
25512;DHT22;13414;44.534;18.700;2023-12-14T06:52:17;9.90;99.90
25512;DHT22;13414;44.534;18.700;2023-12-14T06:54:45;9.90;99.90
25512;DHT22;13414;44.534;18.700;2023-12-14T06:57:13;9.80;99.90
25512;DHT22;13414;44.534;18.700;2023-12-14T06:59:41;9.80;99.90
25512;DHT22;13414;44.534;18.700;2023-12-14T07:02:08;9.80;99.90
25512;DHT22;13414;44.534;18.700;2023-12-14T07:04:36;9.90;99.90
25512;DHT22;13414;44.534;18.700;2023-12-14T07:07:03;10.00;99.90
25512;DHT22;13414;44.534;18.700;2023-12-14T07:09:31;10.10;99.90
25512;DHT22;13414;44.534;18.700;2023-12-14T07:11:59;10.10;99.90
25512;DHT22;13414;44.534;18.700;2023-12-14T07:14:30;10.20;99.90
25512;DHT22;13414;44.534;18.700;2023-12-14T07:16:57;10.20;99.90
25512;DHT22;13414;44.534;18.700;2023-12-14T07:19:25;10.30;99.90
25512;DHT22;13414;44.534;18.700;2023-12-14T07:21:52;10.40;99.90
25512;DHT22;13414;44.534;18.700;2023-12-14T07:24:38;10.40;99.90
25512;DHT22;13414;44.534;18.700;2023-12-14T07:27:07;10.40;99.90
25512;DHT22;13414;44.534;18.700;2023-12-14T07:29:36;10.30;99.90
25512;DHT22;13414;44.534;18.700;2023-12-14T07:32:04;10.30;99.90
25512;DHT22;13414;44.534;18.700;2023-12-14T07:34:32;10.20;99.90
25512;DHT22;13414;44.534;18.700;2023-12-14T07:36:59;10.20;99.90
25512;DHT22;13414;44.534;18.700;2023-12-14T07:39:28;10.20;99.90
25512;DHT22;13414;44.534;18.700;2023-12-14T07:41:55;10.20;99.90
25512;DHT22;13414;44.534;18.700;2023-12-14T07:44:23;10.20;99.90
25512;DHT22;13414;44.534;18.700;2023-12-14T07:46:53;10.20;99.90
25512;DHT22;13414;44.534;18.700;2023-12-14T07:49:20;10.30;99.90
25512;DHT22;13414;44.534;18.700;2023-12-14T07:51:51;10.30;99.90
25512;DHT22;13414;44.534;18.700;2023-12-14T07:54:18;10.40;99.90
25512;DHT22;13414;44.534;18.700;2023-12-14T07:56:46;10.40;99.90
25512;DHT22;13414;44.534;18.700;2023-12-14T07:59:14;10.40;99.90
25512;DHT22;13414;44.534;18.700;2023-12-14T08:01:41;10.40;99.90
25512;DHT22;13414;44.534;18.700;2023-12-14T08:04:10;10.50;99.90
25512;DHT22;13414;44.534;18.700;2023-12-14T08:06:38;10.50;99.90
25512;DHT22;13414;44.534;18.700;2023-12-14T08:09:06;10.50;99.90
25512;DHT22;13414;44.534;18.700;2023-12-14T08:11:34;10.50;99.90
25512;DHT22;13414;44.534;18.700;2023-12-14T08:14:02;10.60;99.90
25512;DHT22;13414;44.534;18.700;2023-12-14T08:16:30;10.60;99.90
25512;DHT22;13414;44.534;18.700;2023-12-14T08:18:57;10.60;99.90
25512;DHT22;13414;44.534;18.700;2023-12-14T08:21:26;10.60;99.90
25512;DHT22;13414;44.534;18.700;2023-12-14T08:23:54;10.70;99.90
25512;DHT22;13414;44.534;18.700;2023-12-14T08:26:22;10.70;99.90
25512;DHT22;13414;44.534;18.700;2023-12-14T08:28:49;10.60;99.90
25512;DHT22;13414;44.534;18.700;2023-12-14T08:31:17;10.70;99.90
25512;DHT22;13414;44.534;18.700;2023-12-14T08:33:45;10.70;99.90
25512;DHT22;13414;44.534;18.700;2023-12-14T08:36:15;10.70;99.90
25512;DHT22;13414;44.534;18.700;2023-12-14T08:38:45;10.70;99.90
25512;DHT22;13414;44.534;18.700;2023-12-14T08:41:13;10.70;99.90
25512;DHT22;13414;44.534;18.700;2023-12-14T08:43:40;10.70;99.90
25512;DHT22;13414;44.534;18.700;2023-12-14T08:46:08;10.80;99.90
25512;DHT22;13414;44.534;18.700;2023-12-14T08:48:36;10.70;99.90
25512;DHT22;13414;44.534;18.700;2023-12-14T08:51:04;10.60;99.90
25512;DHT22;13414;44.534;18.700;2023-12-14T08:53:31;10.60;99.90
25512;DHT22;13414;44.534;18.700;2023-12-14T08:56:00;10.60;99.90
25512;DHT22;13414;44.534;18.700;2023-12-14T08:58:28;10.60;99.90
25512;DHT22;13414;44.534;18.700;2023-12-14T09:00:56;10.60;99.90
25512;DHT22;13414;44.534;18.700;2023-12-14T09:03:24;10.60;99.90
25512;DHT22;13414;44.534;18.700;2023-12-14T09:05:52;10.60;99.90
25512;DHT22;13414;44.534;18.700;2023-12-14T09:08:19;10.60;99.90
25512;DHT22;13414;44.534;18.700;2023-12-14T09:10:52;10.60;99.90
25512;DHT22;13414;44.534;18.700;2023-12-14T09:13:22;10.60;99.90
25512;DHT22;13414;44.534;18.700;2023-12-14T09:15:50;10.70;99.90
25512;DHT22;13414;44.534;18.700;2023-12-14T09:18:19;10.80;99.90
25512;DHT22;13414;44.534;18.700;2023-12-14T09:20:48;10.80;99.90
25512;DHT22;13414;44.534;18.700;2023-12-14T09:23:17;10.90;99.90
25512;DHT22;13414;44.534;18.700;2023-12-14T09:25:45;10.90;99.90
25512;DHT22;13414;44.534;18.700;2023-12-14T09:28:12;10.90;99.90
25512;DHT22;13414;44.534;18.700;2023-12-14T09:30:42;10.90;99.90
25512;DHT22;13414;44.534;18.700;2023-12-14T09:33:10;11.00;99.90
25512;DHT22;13414;44.534;18.700;2023-12-14T09:35:38;10.90;99.90
25512;DHT22;13414;44.534;18.700;2023-12-14T09:38:07;11.00;99.90
25512;DHT22;13414;44.534;18.700;2023-12-14T09:40:35;11.10;99.90
25512;DHT22;13414;44.534;18.700;2023-12-14T09:43:02;11.10;99.90
25512;DHT22;13414;44.534;18.700;2023-12-14T09:45:30;11.10;99.90
25512;DHT22;13414;44.534;18.700;2023-12-14T09:48:00;11.10;99.90
25512;DHT22;13414;44.534;18.700;2023-12-14T09:50:29;11.20;99.90
25512;DHT22;13414;44.534;18.700;2023-12-14T09:52:57;11.20;99.90
25512;DHT22;13414;44.534;18.700;2023-12-14T09:55:26;11.10;99.90
25512;DHT22;13414;44.534;18.700;2023-12-14T09:57:53;11.10;99.90
25512;DHT22;13414;44.534;18.700;2023-12-14T10:00:36;11.10;99.90
25512;DHT22;13414;44.534;18.700;2023-12-14T10:03:23;11.00;99.90
25512;DHT22;13414;44.534;18.700;2023-12-14T10:05:52;11.00;99.90
25512;DHT22;13414;44.534;18.700;2023-12-14T10:08:20;10.90;99.90
25512;DHT22;13414;44.534;18.700;2023-12-14T10:10:49;10.80;99.90
25512;DHT22;13414;44.534;18.700;2023-12-14T10:13:19;10.70;99.90
25512;DHT22;13414;44.534;18.700;2023-12-14T10:15:47;10.70;99.90
25512;DHT22;13414;44.534;18.700;2023-12-14T10:18:23;10.70;99.90
25512;DHT22;13414;44.534;18.700;2023-12-14T10:20:51;10.70;99.90
25512;DHT22;13414;44.534;18.700;2023-12-14T10:23:19;10.70;99.90
25512;DHT22;13414;44.534;18.700;2023-12-14T10:25:47;10.70;99.90
25512;DHT22;13414;44.534;18.700;2023-12-14T10:28:14;10.60;99.90
25512;DHT22;13414;44.534;18.700;2023-12-14T10:30:42;10.60;99.90
25512;DHT22;13414;44.534;18.700;2023-12-14T10:33:11;10.60;99.90
25512;DHT22;13414;44.534;18.700;2023-12-14T10:35:41;10.50;99.90
25512;DHT22;13414;44.534;18.700;2023-12-14T10:38:15;10.50;99.90
25512;DHT22;13414;44.534;18.700;2023-12-14T10:40:45;10.30;99.90
25512;DHT22;13414;44.534;18.700;2023-12-14T10:43:13;10.30;99.90
25512;DHT22;13414;44.534;18.700;2023-12-14T10:45:43;10.40;99.90
25512;DHT22;13414;44.534;18.700;2023-12-14T10:48:13;10.50;99.90
25512;DHT22;13414;44.534;18.700;2023-12-14T10:50:43;10.60;99.90
25512;DHT22;13414;44.534;18.700;2023-12-14T10:53:11;10.60;99.90
25512;DHT22;13414;44.534;18.700;2023-12-14T10:55:42;10.70;99.90
25512;DHT22;13414;44.534;18.700;2023-12-14T10:58:11;10.70;99.90
25512;DHT22;13414;44.534;18.700;2023-12-14T11:00:39;10.60;99.90
25512;DHT22;13414;44.534;18.700;2023-12-14T11:03:06;10.70;99.90
25512;DHT22;13414;44.534;18.700;2023-12-14T11:05:34;10.70;99.90
25512;DHT22;13414;44.534;18.700;2023-12-14T11:08:04;10.70;99.90
25512;DHT22;13414;44.534;18.700;2023-12-14T11:10:39;10.80;99.90
25512;DHT22;13414;44.534;18.700;2023-12-14T11:13:09;10.90;99.90
25512;DHT22;13414;44.534;18.700;2023-12-14T11:15:38;10.90;99.90
25512;DHT22;13414;44.534;18.700;2023-12-14T11:18:24;10.90;99.90
25512;DHT22;13414;44.534;18.700;2023-12-14T11:20:54;10.80;99.90
25512;DHT22;13414;44.534;18.700;2023-12-14T11:23:32;10.80;99.90
25512;DHT22;13414;44.534;18.700;2023-12-14T11:26:01;10.90;99.90
25512;DHT22;13414;44.534;18.700;2023-12-14T11:28:31;10.80;99.90
25512;DHT22;13414;44.534;18.700;2023-12-14T11:30:59;10.80;99.90
25512;DHT22;13414;44.534;18.700;2023-12-14T11:33:27;10.80;99.90
25512;DHT22;13414;44.534;18.700;2023-12-14T11:35:55;10.80;99.90
25512;DHT22;13414;44.534;18.700;2023-12-14T11:38:24;10.80;99.90
25512;DHT22;13414;44.534;18.700;2023-12-14T11:41:03;10.90;99.90
25512;DHT22;13414;44.534;18.700;2023-12-14T11:43:39;10.80;99.90
25512;DHT22;13414;44.534;18.700;2023-12-14T11:46:07;11.10;99.90
25512;DHT22;13414;44.534;18.700;2023-12-14T11:48:35;11.10;99.90
25512;DHT22;13414;44.534;18.700;2023-12-14T11:51:06;11.20;99.90
25512;DHT22;13414;44.534;18.700;2023-12-14T11:53:39;11.40;99.90
25512;DHT22;13414;44.534;18.700;2023-12-14T11:56:10;11.40;99.90
25512;DHT22;13414;44.534;18.700;2023-12-14T11:58:41;11.40;99.90
25512;DHT22;13414;44.534;18.700;2023-12-14T12:01:13;11.40;99.90
25512;DHT22;13414;44.534;18.700;2023-12-14T12:03:41;11.40;99.90
25512;DHT22;13414;44.534;18.700;2023-12-14T12:06:20;11.40;99.90
25512;DHT22;13414;44.534;18.700;2023-12-14T12:13:17;11.60;99.90
25512;DHT22;13414;44.534;18.700;2023-12-14T12:16:24;11.60;99.90
25512;DHT22;13414;44.534;18.700;2023-12-14T12:18:51;11.70;99.90
25512;DHT22;13414;44.534;18.700;2023-12-14T12:21:22;11.80;99.90
25512;DHT22;13414;44.534;18.700;2023-12-14T12:23:51;11.80;99.90
25512;DHT22;13414;44.534;18.700;2023-12-14T12:26:18;11.90;99.90
25512;DHT22;13414;44.534;18.700;2023-12-14T12:28:51;11.90;99.90
25512;DHT22;13414;44.534;18.700;2023-12-14T12:31:18;11.80;99.90
25512;DHT22;13414;44.534;18.700;2023-12-14T12:33:46;11.80;99.90
25512;DHT22;13414;44.534;18.700;2023-12-14T12:36:16;11.80;99.90
25512;DHT22;13414;44.534;18.700;2023-12-14T12:38:44;11.80;99.90
25512;DHT22;13414;44.534;18.700;2023-12-14T12:41:14;11.80;99.90
25512;DHT22;13414;44.534;18.700;2023-12-14T12:43:41;11.70;99.90
25512;DHT22;13414;44.534;18.700;2023-12-14T12:46:11;11.60;99.90
25512;DHT22;13414;44.534;18.700;2023-12-14T12:48:41;11.70;99.90
25512;DHT22;13414;44.534;18.700;2023-12-14T12:51:09;11.60;99.90
25512;DHT22;13414;44.534;18.700;2023-12-14T12:53:37;11.60;99.90
25512;DHT22;13414;44.534;18.700;2023-12-14T12:56:05;11.60;99.90
25512;DHT22;13414;44.534;18.700;2023-12-14T12:58:32;11.50;99.90
25512;DHT22;13414;44.534;18.700;2023-12-14T13:01:00;11.50;99.90
25512;DHT22;13414;44.534;18.700;2023-12-14T13:03:29;11.40;99.90
25512;DHT22;13414;44.534;18.700;2023-12-14T13:05:57;11.50;99.90
25512;DHT22;13414;44.534;18.700;2023-12-14T13:08:24;11.40;99.90
25512;DHT22;13414;44.534;18.700;2023-12-14T13:10:52;11.30;99.90
25512;DHT22;13414;44.534;18.700;2023-12-14T13:13:19;11.20;99.90
25512;DHT22;13414;44.534;18.700;2023-12-14T13:15:48;11.20;99.90
25512;DHT22;13414;44.534;18.700;2023-12-14T13:18:16;11.30;99.90
25512;DHT22;13414;44.534;18.700;2023-12-14T13:20:45;11.30;99.90
25512;DHT22;13414;44.534;18.700;2023-12-14T13:23:13;11.50;99.90
25512;DHT22;13414;44.534;18.700;2023-12-14T13:25:41;11.50;99.90
25512;DHT22;13414;44.534;18.700;2023-12-14T13:28:10;11.50;99.90
25512;DHT22;13414;44.534;18.700;2023-12-14T13:30:38;11.50;99.90
25512;DHT22;13414;44.534;18.700;2023-12-14T13:33:07;11.50;99.90
25512;DHT22;13414;44.534;18.700;2023-12-14T13:35:38;11.60;99.90
25512;DHT22;13414;44.534;18.700;2023-12-14T13:38:07;11.50;99.90
25512;DHT22;13414;44.534;18.700;2023-12-14T13:40:34;11.50;99.90
25512;DHT22;13414;44.534;18.700;2023-12-14T13:43:02;11.40;99.90
25512;DHT22;13414;44.534;18.700;2023-12-14T13:45:36;11.30;99.90
25512;DHT22;13414;44.534;18.700;2023-12-14T13:48:04;11.20;99.90
25512;DHT22;13414;44.534;18.700;2023-12-14T13:50:33;11.20;99.90
25512;DHT22;13414;44.534;18.700;2023-12-14T13:53:00;11.20;99.90
25512;DHT22;13414;44.534;18.700;2023-12-14T13:55:30;11.10;99.90
25512;DHT22;13414;44.534;18.700;2023-12-14T13:57:58;10.90;99.90
25512;DHT22;13414;44.534;18.700;2023-12-14T14:00:27;10.80;99.90
25512;DHT22;13414;44.534;18.700;2023-12-14T14:02:54;10.80;99.90
25512;DHT22;13414;44.534;18.700;2023-12-14T14:05:22;10.90;99.90
25512;DHT22;13414;44.534;18.700;2023-12-14T14:07:51;10.90;99.90
25512;DHT22;13414;44.534;18.700;2023-12-14T14:10:21;11.00;99.90
25512;DHT22;13414;44.534;18.700;2023-12-14T14:12:50;11.00;99.90
25512;DHT22;13414;44.534;18.700;2023-12-14T14:15:19;11.10;99.90
25512;DHT22;13414;44.534;18.700;2023-12-14T14:17:47;11.10;99.90
25512;DHT22;13414;44.534;18.700;2023-12-14T14:20:18;11.10;99.90
25512;DHT22;13414;44.534;18.700;2023-12-14T14:22:45;11.10;99.90
25512;DHT22;13414;44.534;18.700;2023-12-14T14:25:13;11.20;99.90
25512;DHT22;13414;44.534;18.700;2023-12-14T14:27:41;11.20;99.90
25512;DHT22;13414;44.534;18.700;2023-12-14T14:30:11;11.10;99.90
25512;DHT22;13414;44.534;18.700;2023-12-14T14:32:39;11.20;99.90
25512;DHT22;13414;44.534;18.700;2023-12-14T14:35:07;11.20;99.90
25512;DHT22;13414;44.534;18.700;2023-12-14T14:37:35;11.20;99.90
25512;DHT22;13414;44.534;18.700;2023-12-14T14:40:03;11.20;99.90
25512;DHT22;13414;44.534;18.700;2023-12-14T14:42:31;11.20;99.90
25512;DHT22;13414;44.534;18.700;2023-12-14T14:44:58;11.10;99.90
25512;DHT22;13414;44.534;18.700;2023-12-14T14:47:27;11.00;99.90
25512;DHT22;13414;44.534;18.700;2023-12-14T14:49:55;11.00;99.90
25512;DHT22;13414;44.534;18.700;2023-12-14T14:52:29;11.00;99.90
25512;DHT22;13414;44.534;18.700;2023-12-14T14:54:56;11.00;99.90
25512;DHT22;13414;44.534;18.700;2023-12-14T14:57:24;10.90;99.90
25512;DHT22;13414;44.534;18.700;2023-12-14T14:59:52;10.90;99.90
25512;DHT22;13414;44.534;18.700;2023-12-14T15:02:19;11.00;99.90
25512;DHT22;13414;44.534;18.700;2023-12-14T15:04:48;10.90;99.90
25512;DHT22;13414;44.534;18.700;2023-12-14T15:07:16;10.90;99.90
25512;DHT22;13414;44.534;18.700;2023-12-14T15:09:44;11.00;99.90
25512;DHT22;13414;44.534;18.700;2023-12-14T15:12:11;11.00;99.90
25512;DHT22;13414;44.534;18.700;2023-12-14T15:14:39;11.00;99.90
25512;DHT22;13414;44.534;18.700;2023-12-14T15:17:07;11.00;99.90
25512;DHT22;13414;44.534;18.700;2023-12-14T15:19:34;11.00;99.90
25512;DHT22;13414;44.534;18.700;2023-12-14T15:22:03;11.00;99.90
25512;DHT22;13414;44.534;18.700;2023-12-14T15:24:31;10.90;99.90
25512;DHT22;13414;44.534;18.700;2023-12-14T15:26:59;10.90;99.90
25512;DHT22;13414;44.534;18.700;2023-12-14T15:29:26;10.90;99.90
25512;DHT22;13414;44.534;18.700;2023-12-14T15:31:54;10.90;99.90
25512;DHT22;13414;44.534;18.700;2023-12-14T15:34:21;10.90;99.90
25512;DHT22;13414;44.534;18.700;2023-12-14T15:36:49;10.80;99.90